Time;durP1;ratioP1;P1;durP2;ratioP2;P2;SDS_P1;SDS_P2;PMS_P1;PMS_P2;Temp;Humidity;BMP_temperature;BMP_pressure;BME280_temperature;BME280_humidity;BME280_pressure;Samples;Min_cycle;Max_cycle;Signal;HPM_P1;HPM_P2
2021/12/17 00:04:39;;;;;;;38.47;21.97;;;4.90;99.90;;;5.45;100.00;-19912.31;5093665;28;20200;-72
2021/12/17 00:07:10;;;;;;;38.23;20.77;;;4.80;99.90;;;5.38;100.00;-19910.06;5094132;28;20622;-72
2021/12/17 00:09:41;;;;;;;41.50;21.67;;;4.80;99.90;;;5.64;100.00;-19918.78;5094528;28;20184;-71
2021/12/17 00:12:12;;;;;;;34.70;20.43;;;4.90;99.90;;;5.64;100.00;-19918.78;5094008;28;20503;-71
2021/12/17 00:14:46;;;;;;;36.73;20.47;;;4.90;99.90;;;5.68;100.00;-19920.34;5093966;28;20762;-71
2021/12/17 00:17:19;;;;;;;39.73;21.67;;;4.90;99.90;;;5.54;100.00;-19915.56;5092421;28;20208;-73
2021/12/17 00:20:06;;;;;;;38.43;20.73;;;4.90;99.90;;;5.47;100.00;-19912.97;5094252;28;20184;-71
2021/12/17 00:51:15;;;;;;;30.47;18.73;;;4.70;99.90;;;5.22;100.00;-19904.63;5093613;28;20191;-71
2021/12/17 00:53:43;;;;;;;33.30;19.67;;;4.70;99.90;;;5.32;100.00;-19908.03;5093552;28;20183;-72
2021/12/17 00:56:12;;;;;;;33.37;19.53;;;4.60;99.90;;;5.27;100.00;-19906.16;5093330;28;20294;-71
2021/12/17 00:58:40;;;;;;;31.23;18.53;;;4.60;99.90;;;5.12;100.00;-19901.19;5093108;28;20791;-71
2021/12/17 01:01:09;;;;;;;34.33;18.17;;;4.50;99.90;;;5.27;100.00;-19906.31;5093241;28;20287;-72
2021/12/17 01:03:37;;;;;;;31.03;18.77;;;4.50;99.90;;;5.10;100.00;-19900.34;5093309;28;20297;-71
2021/12/17 01:06:06;;;;;;;32.90;19.20;;;4.50;99.90;;;5.04;100.00;-19898.28;5092936;28;20239;-72
2021/12/17 01:08:35;;;;;;;30.50;17.97;;;4.50;99.90;;;4.95;100.00;-19895.56;5093220;28;20198;-71
2021/12/17 01:11:05;;;;;;;30.10;17.20;;;4.40;99.90;;;4.94;100.00;-19895.22;5093352;28;20203;-72
2021/12/17 01:13:35;;;;;;;33.27;18.50;;;4.40;99.90;;;4.92;100.00;-19894.53;5092600;28;20222;-71
2021/12/17 01:16:04;;;;;;;32.07;18.97;;;4.40;99.90;;;4.83;100.00;-19891.44;5092879;28;20231;-72
2021/12/17 01:18:44;;;;;;;29.50;17.00;;;4.30;99.90;;;4.78;100.00;-19889.56;5093045;28;20282;-71
2021/12/17 01:24:16;;;;;;;29.03;17.63;;;4.30;99.90;;;4.76;100.00;-19889.06;5092522;28;20202;-72
2021/12/17 01:35:22;;;;;;;30.73;17.70;;;4.20;99.90;;;4.72;100.00;-19887.69;5092912;28;20217;-71
2021/12/17 01:43:38;;;;;;;31.80;18.03;;;4.00;99.90;;;4.61;100.00;-19883.94;5072281;28;20188;-71
2021/12/17 01:46:08;;;;;;;33.00;18.80;;;4.00;99.90;;;4.60;100.00;-19883.59;5071891;28;20269;-71
2021/12/17 01:48:54;;;;;;;29.30;17.60;;;4.00;99.90;;;4.65;100.00;-19885.13;5072119;28;20659;-72
2021/12/17 01:59:17;;;;;;;30.03;17.77;;;4.00;99.90;;;4.50;100.00;-19880.16;5075002;28;20267;-73
2021/12/17 01:59:51;;;;;;;27.23;16.87;;;4.00;99.90;;;4.57;100.00;-19882.38;5092314;28;20208;-73
2021/12/17 02:02:19;;;;;;;27.83;16.63;;;4.00;99.90;;;4.63;100.00;-19884.59;5092535;28;20181;-72
2021/12/17 02:04:47;;;;;;;32.33;17.50;;;4.00;99.90;;;4.74;100.00;-19888.19;5092167;28;20240;-72
2021/12/17 02:07:15;;;;;;;27.27;15.77;;;4.00;99.90;;;4.54;100.00;-19881.38;5092374;28;20457;-70
2021/12/17 02:10:21;;;;;;;31.67;17.23;;;4.00;99.90;;;4.60;100.00;-19883.41;5092102;28;20223;-71
2021/12/17 02:13:05;;;;;;;29.27;17.00;;;4.00;99.90;;;4.72;100.00;-19887.69;5092088;28;20289;-71
2021/12/17 02:21:35;;;;;;;27.00;15.53;;;4.00;99.90;;;4.59;100.00;-19883.25;5092427;28;20202;-71
2021/12/17 02:30:15;;;;;;;29.00;15.20;;;3.90;99.90;;;4.40;100.00;-19876.56;5095974;28;20210;-72
2021/12/17 02:32:45;;;;;;;27.47;15.60;;;3.80;99.90;;;4.43;100.00;-19877.59;5095207;28;20258;-72
2021/12/17 02:37:57;;;;;;;28.93;15.47;;;3.80;99.90;;;4.37;100.00;-19875.56;5093159;28;20549;-72
2021/12/17 02:45:55;;;;;;;24.20;14.53;;;3.80;99.90;;;4.30;100.00;-19873.34;5063336;28;20678;-72
2021/12/17 02:48:25;;;;;;;27.30;14.83;;;3.70;99.90;;;4.20;100.00;-19869.75;5094891;28;20286;-71
2021/12/17 02:50:57;;;;;;;26.83;15.23;;;3.70;99.90;;;4.20;100.00;-19869.75;5093619;28;20701;-72
2021/12/17 02:53:29;;;;;;;30.40;16.83;;;3.60;99.90;;;4.16;100.00;-19868.53;5094416;28;20233;-71
2021/12/17 02:56:00;;;;;;;27.97;14.93;;;3.60;99.90;;;4.11;100.00;-19866.66;5094603;28;20278;-73
2021/12/17 02:58:33;;;;;;;26.67;14.83;;;3.60;99.90;;;4.17;100.00;-19868.72;5095125;28;20283;-72
2021/12/17 03:01:05;;;;;;;26.90;14.80;;;3.60;99.90;;;4.14;100.00;-19867.69;5093520;28;20657;-72
2021/12/17 03:03:34;;;;;;;26.87;14.83;;;3.60;99.90;;;4.14;100.00;-19867.88;5093808;28;20282;-72
2021/12/17 03:06:02;;;;;;;27.57;17.03;;;3.60;99.90;;;4.20;100.00;-19869.91;5097335;28;20673;-72
2021/12/17 03:08:32;;;;;;;28.47;16.53;;;3.60;99.90;;;4.12;100.00;-19867.00;5098723;28;20325;-72
2021/12/17 03:11:02;;;;;;;26.60;15.17;;;3.60;99.90;;;4.03;100.00;-19864.09;5098088;28;20200;-71
2021/12/17 03:13:33;;;;;;;29.13;15.23;;;3.60;99.90;;;4.19;100.00;-19869.41;5098493;28;20291;-71
2021/12/17 03:16:04;;;;;;;25.43;15.30;;;3.50;99.90;;;3.97;100.00;-19862.06;5098044;28;20191;-71
2021/12/17 03:24:09;;;;;;;26.60;16.10;;;3.40;99.90;;;3.81;100.00;-19856.41;5097205;28;20230;-71
2021/12/17 03:26:37;;;;;;;26.73;16.77;;;3.30;99.90;;;3.82;100.00;-19856.94;5095826;28;20344;-73
2021/12/17 03:29:09;;;;;;;30.40;16.33;;;3.30;99.90;;;3.95;100.00;-19861.38;5095113;28;20329;-70
2021/12/17 03:31:37;;;;;;;29.93;16.20;;;3.30;99.90;;;3.80;100.00;-19856.06;5094580;28;20193;-70
2021/12/17 03:34:19;;;;;;;27.13;15.70;;;3.30;99.90;;;3.88;100.00;-19858.81;5094735;28;20793;-71
2021/12/17 03:36:53;;;;;;;28.30;15.63;;;3.30;99.90;;;3.94;100.00;-19860.84;5095016;28;20197;-72
2021/12/17 03:39:25;;;;;;;33.10;16.43;;;3.30;99.90;;;3.83;100.00;-19857.25;5095132;28;20282;-71
2021/12/17 03:41:55;;;;;;;29.70;16.53;;;3.30;99.90;;;4.00;100.00;-19862.91;5094766;28;20277;-71
2021/12/17 03:44:24;;;;;;;28.57;16.03;;;3.30;99.90;;;4.14;100.00;-19867.69;5094603;28;20725;-71
2021/12/17 03:46:53;;;;;;;29.37;16.27;;;3.40;99.90;;;4.30;100.00;-19873.16;5094710;28;20227;-72
2021/12/17 03:49:23;;;;;;;27.90;16.77;;;3.50;99.90;;;4.48;100.00;-19879.31;5094808;28;20217;-71
2021/12/17 03:52:03;;;;;;;31.53;16.83;;;3.60;99.90;;;4.62;100.00;-19884.28;5094174;28;20202;-71
2021/12/17 03:54:34;;;;;;;28.03;15.33;;;3.70;99.90;;;4.45;100.00;-19878.47;5094037;28;20192;-72
2021/12/17 03:57:05;;;;;;;26.70;14.63;;;3.80;99.90;;;4.47;100.00;-19879.16;5093988;28;20199;-71
2021/12/17 03:59:33;;;;;;;28.10;15.83;;;3.80;99.90;;;4.47;100.00;-19879.16;5093979;28;20234;-71
2021/12/17 04:02:01;;;;;;;26.00;14.87;;;3.80;99.90;;;4.56;100.00;-19882.22;5087638;28;20210;-71
2021/12/17 04:04:29;;;;;;;30.70;15.87;;;3.80;99.90;;;4.71;100.00;-19887.34;5074238;28;20204;-72
2021/12/17 04:06:57;;;;;;;27.10;14.53;;;3.90;99.90;;;4.69;100.00;-19886.50;5092221;28;20231;-72
2021/12/17 04:09:29;;;;;;;28.23;15.93;;;3.90;99.90;;;4.82;100.00;-19891.09;5094188;28;20319;-72
2021/12/17 04:12:00;;;;;;;26.97;15.67;;;4.00;99.90;;;4.85;100.00;-19891.97;5095419;28;20188;-72
2021/12/17 04:14:35;;;;;;;26.83;14.83;;;4.10;99.90;;;5.11;100.00;-19900.84;5096159;28;20213;-72
2021/12/17 04:17:05;;;;;;;24.60;14.80;;;4.10;99.90;;;4.99;100.00;-19896.75;5094976;28;20677;-71
2021/12/17 04:19:34;;;;;;;27.90;14.90;;;4.20;99.90;;;5.08;100.00;-19899.81;5094248;28;20229;-73
2021/12/17 04:22:03;;;;;;;28.10;15.43;;;4.20;99.90;;;5.02;100.00;-19897.59;5095653;28;20218;-71
2021/12/17 04:24:31;;;;;;;25.37;15.77;;;4.30;99.90;;;5.23;100.00;-19904.78;5095339;28;20291;-66
2021/12/17 04:27:01;;;;;;;27.63;16.07;;;4.40;99.90;;;5.31;100.00;-19907.53;5094877;28;20631;-67
2021/12/17 04:29:29;;;;;;;28.80;15.00;;;4.50;99.90;;;5.22;100.00;-19904.63;5095252;28;20320;-67
2021/12/17 04:31:57;;;;;;;27.60;15.80;;;4.50;99.90;;;5.42;100.00;-19911.28;5094642;28;20230;-66
2021/12/17 04:34:27;;;;;;;24.50;15.10;;;4.50;99.90;;;5.43;100.00;-19911.63;5094727;28;20283;-67
2021/12/17 04:36:56;;;;;;;24.30;14.57;;;4.60;99.90;;;5.42;100.00;-19911.28;5095730;28;20196;-66
2021/12/17 04:39:25;;;;;;;26.27;15.13;;;4.60;99.90;;;5.32;100.00;-19908.03;5093907;28;20203;-66
2021/12/17 04:41:57;;;;;;;23.03;14.37;;;4.60;99.90;;;5.32;100.00;-19908.03;5094753;28;20196;-66
2021/12/17 04:44:29;;;;;;;25.43;15.87;;;4.60;99.90;;;5.44;100.00;-19911.97;5095550;28;20176;-67
2021/12/17 04:57:13;;;;;;;26.63;15.33;;;4.70;99.90;;;5.52;100.00;-19914.88;5095252;28;20275;-65
2021/12/17 04:58:08;;;;;;;25.43;15.67;;;4.80;99.90;;;5.60;100.00;-19917.59;5088217;28;20284;-67
2021/12/17 05:00:37;;;;;;;24.60;14.40;;;4.80;99.90;;;5.60;100.00;-19917.59;5073034;28;20299;-66
2021/12/17 05:03:06;;;;;;;26.37;16.70;;;4.80;99.90;;;5.94;100.00;-19929.06;5072819;28;20200;-67
2021/12/17 05:05:35;;;;;;;27.03;16.07;;;4.90;99.90;;;5.76;100.00;-19922.91;5079449;28;20195;-66
2021/12/17 05:08:09;;;;;;;25.57;15.83;;;4.90;99.90;;;5.84;100.00;-19925.63;5093177;28;20228;-66
2021/12/17 05:10:55;;;;;;;26.10;16.00;;;5.00;99.90;;;5.91;100.00;-19928.03;5093147;28;20598;-67
2021/12/17 05:19:02;;;;;;;24.10;15.40;;;5.10;99.90;;;5.81;100.00;-19924.59;5093153;28;20271;-64
2021/12/17 05:21:30;;;;;;;29.20;16.00;;;5.10;99.90;;;5.65;100.00;-19919.31;5092898;28;20290;-66
2021/12/17 05:23:58;;;;;;;29.27;16.87;;;5.10;99.90;;;5.43;100.00;-19911.78;5093053;28;20631;-66
2021/12/17 05:26:26;;;;;;;28.00;15.90;;;5.00;99.90;;;5.54;100.00;-19915.56;5092522;28;20203;-65
2021/12/17 05:28:55;;;;;;;29.07;16.57;;;4.90;99.90;;;5.37;100.00;-19909.56;5092164;28;20727;-66
2021/12/17 05:31:25;;;;;;;27.43;15.77;;;4.80;99.90;;;5.08;100.00;-19899.66;5092771;28;20551;-66
2021/12/17 05:33:56;;;;;;;28.80;16.63;;;4.70;99.90;;;5.14;100.00;-19901.72;5092912;28;20231;-67
2021/12/17 05:36:24;;;;;;;30.03;16.70;;;4.60;99.90;;;5.00;100.00;-19897.09;5092786;28;20184;-65
2021/12/17 05:38:52;;;;;;;31.40;16.70;;;4.50;99.90;;;4.87;100.00;-19892.66;5093078;28;20200;-67
2021/12/17 05:41:20;;;;;;;28.07;17.37;;;4.40;99.90;;;4.87;100.00;-19892.81;5092992;28;20203;-67
2021/12/17 05:43:55;;;;;;;30.03;17.23;;;4.30;99.90;;;4.84;100.00;-19891.78;5092744;28;20209;-65
2021/12/17 05:46:37;;;;;;;28.03;16.53;;;4.20;99.90;;;4.76;100.00;-19888.88;5092451;28;20342;-65
2021/12/17 05:49:06;;;;;;;28.10;16.10;;;4.20;99.90;;;4.69;100.00;-19886.66;5092826;28;20242;-67
2021/12/17 05:51:34;;;;;;;25.23;15.73;;;4.10;99.90;;;4.64;100.00;-19884.97;5092620;28;20528;-66
2021/12/17 05:54:02;;;;;;;28.37;16.50;;;4.00;99.90;;;4.49;100.00;-19879.66;5092025;28;20636;-66
2021/12/17 05:56:30;;;;;;;26.13;15.30;;;4.00;99.90;;;4.33;100.00;-19874.19;5092824;28;20302;-67
2021/12/17 05:58:58;;;;;;;29.37;16.57;;;3.80;99.90;;;4.43;100.00;-19877.78;5092667;28;20235;-66
2021/12/17 06:01:27;;;;;;;26.80;16.03;;;3.80;99.90;;;4.34;100.00;-19874.69;5092557;28;20200;-66
2021/12/17 06:03:55;;;;;;;27.97;16.53;;;3.70;99.90;;;4.15;100.00;-19868.03;5092450;28;20205;-66
2021/12/17 06:06:29;;;;;;;28.17;15.93;;;3.60;99.90;;;4.10;100.00;-19866.31;5091919;28;20207;-66
2021/12/17 06:08:57;;;;;;;27.80;15.33;;;3.60;99.90;;;4.00;100.00;-19863.06;5092265;28;20298;-65
2021/12/17 06:11:25;;;;;;;26.53;16.37;;;3.50;99.90;;;4.06;100.00;-19864.97;5092579;28;20195;-67
2021/12/17 06:13:53;;;;;;;29.30;15.87;;;3.40;99.90;;;4.04;100.00;-19864.28;5092244;28;20289;-66
2021/12/17 06:16:21;;;;;;;28.40;16.13;;;3.40;99.90;;;4.12;100.00;-19867.19;5091868;28;20295;-65
2021/12/17 06:18:50;;;;;;;30.67;16.80;;;3.40;99.90;;;4.15;100.00;-19868.22;5092064;28;20287;-66
2021/12/17 06:21:19;;;;;;;24.87;15.57;;;3.50;99.90;;;4.09;100.00;-19865.97;5092257;28;20624;-65
2021/12/17 06:23:47;;;;;;;26.37;15.20;;;3.50;99.90;;;3.96;100.00;-19861.72;5091889;28;20511;-64
2021/12/17 06:26:15;;;;;;;29.23;16.60;;;3.40;99.90;;;3.94;100.00;-19860.84;5092344;28;20272;-64
2021/12/17 06:28:43;;;;;;;26.00;14.37;;;3.40;99.90;;;3.98;100.00;-19862.22;5092117;28;20294;-65
2021/12/17 06:31:11;;;;;;;26.83;16.43;;;3.40;99.90;;;3.98;100.00;-19862.41;5091820;28;20323;-65
2021/12/17 06:33:39;;;;;;;27.57;16.37;;;3.40;99.90;;;3.86;100.00;-19858.13;5091902;28;20230;-66
2021/12/17 06:36:08;;;;;;;27.60;15.33;;;3.30;99.90;;;3.78;100.00;-19855.56;5091986;28;20782;-65
2021/12/17 06:38:37;;;;;;;26.73;15.53;;;3.30;99.90;;;3.77;100.00;-19855.03;5092933;28;20198;-66
2021/12/17 06:41:05;;;;;;;27.83;16.17;;;3.20;99.90;;;3.89;100.00;-19859.31;5095732;28;20788;-65
2021/12/17 06:43:37;;;;;;;28.70;15.87;;;3.20;99.90;;;3.90;100.00;-19859.50;5095848;28;20192;-65
2021/12/17 06:46:19;;;;;;;27.47;15.70;;;3.20;99.90;;;3.75;100.00;-19854.53;5095801;28;20273;-65
2021/12/17 06:48:51;;;;;;;28.50;15.97;;;3.10;99.90;;;3.72;100.00;-19853.69;5095881;28;20209;-64
2021/12/17 06:59:53;;;;;;;26.13;15.20;;;3.20;99.90;;;3.70;100.00;-19852.81;5095225;28;20191;-68
2021/12/17 07:10:42;;;;;;;24.97;14.77;;;3.20;99.90;;;3.73;100.00;-19854.03;5095422;28;20624;-64
2021/12/17 07:21:57;;;;;;;29.63;15.90;;;3.10;99.90;;;4.02;100.00;-19863.59;5095343;28;20288;-64
2021/12/17 07:32:53;;;;;;;28.40;15.13;;;3.10;99.90;;;3.81;100.00;-19856.59;5094445;28;20235;-67
2021/12/17 07:35:40;;;;;;;27.63;15.67;;;3.10;99.90;;;3.76;100.00;-19854.88;5094786;28;20207;-66
2021/12/17 07:40:56;;;;;;;28.23;16.40;;;3.10;99.90;;;3.86;100.00;-19858.28;5095055;28;20281;-66
2021/12/17 07:43:35;;;;;;;33.03;17.63;;;3.10;99.90;;;3.77;100.00;-19855.22;5094621;28;20295;-66
2021/12/17 07:46:06;;;;;;;28.20;16.10;;;3.10;99.90;;;3.66;100.00;-19851.44;5094529;28;20189;-68
2021/12/17 07:48:34;;;;;;;25.90;15.90;;;3.10;99.90;;;3.64;100.00;-19850.94;5094364;28;20203;-68
2021/12/17 07:51:06;;;;;;;32.30;17.60;;;3.10;99.90;;;3.61;100.00;-19849.75;5093636;28;20222;-68
2021/12/17 07:53:39;;;;;;;29.83;16.73;;;3.10;99.90;;;3.67;100.00;-19851.97;5094485;28;20202;-68
2021/12/17 07:56:11;;;;;;;30.03;17.23;;;3.10;99.90;;;3.73;100.00;-19853.84;5090998;28;20629;-68
2021/12/17 07:58:40;;;;;;;29.30;16.87;;;3.20;99.90;;;3.85;100.00;-19857.94;5086406;28;20199;-69
2021/12/17 08:01:10;;;;;;;31.43;18.40;;;3.20;99.90;;;4.13;100.00;-19867.53;5073834;28;20209;-68
2021/12/17 08:03:40;;;;;;;31.67;17.20;;;3.30;99.90;;;4.09;100.00;-19865.97;5074208;28;20275;-68
2021/12/17 08:06:09;;;;;;;30.23;17.40;;;3.40;99.90;;;4.26;100.00;-19871.97;5085241;28;20232;-69
2021/12/17 08:08:37;;;;;;;31.33;19.23;;;3.50;99.90;;;4.32;100.00;-19874.03;5094471;28;20298;-69
2021/12/17 08:11:08;;;;;;;30.13;18.47;;;3.60;99.90;;;4.51;100.00;-19880.34;5094083;28;20313;-69
2021/12/17 08:13:36;;;;;;;26.53;16.57;;;3.70;99.90;;;4.73;100.00;-19888.03;5094449;28;20222;-68
2021/12/17 08:16:18;;;;;;;27.90;18.03;;;3.80;99.90;;;4.80;100.00;-19890.25;5093307;28;20210;-68
2021/12/17 08:23:06;;;;;;;26.87;16.27;;;3.90;99.90;;;5.06;100.00;-19898.97;5093499;28;20220;-68
2021/12/17 08:24:47;;;;;;;21.53;15.00;;;4.20;99.90;;;5.25;100.00;-19905.63;5093543;28;20663;-67
2021/12/17 08:27:42;;;;;;;24.23;17.07;;;4.30;99.90;;;5.39;100.00;-19910.25;5094287;28;20271;-67
2021/12/17 08:32:54;;;;;;;25.43;16.23;;;4.50;99.90;;;5.70;100.00;-19920.84;5089981;28;20267;-67
2021/12/17 08:35:23;;;;;;;27.03;18.40;;;4.60;99.90;;;5.55;100.00;-19915.72;5093867;28;20375;-68
2021/12/17 08:37:51;;;;;;;27.87;18.80;;;4.60;99.90;;;5.65;100.00;-19919.16;5093908;28;20599;-68
2021/12/17 08:40:19;;;;;;;25.50;16.53;;;4.70;99.90;;;5.85;100.00;-19925.97;5093475;28;20286;-68
2021/12/17 08:42:49;;;;;;;23.60;16.97;;;4.80;99.90;;;5.89;100.00;-19927.34;5093567;28;20214;-68
2021/12/17 08:45:17;;;;;;;25.27;15.00;;;4.90;99.90;;;5.90;100.00;-19927.84;5093721;28;20277;-68
2021/12/17 08:47:45;;;;;;;26.60;18.97;;;4.90;99.90;;;5.93;100.00;-19928.88;5093337;28;20701;-68
2021/12/17 08:50:13;;;;;;;26.37;18.63;;;5.00;99.90;;;5.85;100.00;-19926.16;5093405;28;20231;-69
2021/12/17 08:52:42;;;;;;;24.00;16.50;;;5.00;99.90;;;5.68;100.00;-19920.34;5093489;28;20387;-69
2021/12/17 08:55:11;;;;;;;22.10;15.27;;;4.90;99.90;;;5.57;100.00;-19916.41;5093016;28;20649;-68
2021/12/17 08:57:41;;;;;;;19.70;14.43;;;4.80;99.90;;;5.52;100.00;-19914.69;5093557;28;20253;-68
2021/12/17 09:00:14;;;;;;;21.57;14.20;;;4.70;99.90;;;5.57;100.00;-19916.41;5092156;28;20243;-65
2021/12/17 09:02:42;;;;;;;22.97;15.00;;;4.70;99.90;;;5.80;100.00;-19924.44;5092147;28;20382;-63
2021/12/17 09:05:11;;;;;;;21.00;14.17;;;4.70;99.90;;;5.60;100.00;-19917.44;5090384;28;20266;-74
2021/12/17 09:07:39;;;;;;;23.00;15.00;;;4.70;99.90;;;5.67;100.00;-19919.81;5091251;28;20200;-72
2021/12/17 09:10:10;;;;;;;20.57;14.83;;;4.70;99.90;;;5.49;100.00;-19913.84;5093766;28;20293;-71
2021/12/17 09:12:41;;;;;;;20.23;13.60;;;4.70;99.90;;;5.48;100.00;-19913.34;5092328;28;20263;-70
2021/12/17 09:15:11;;;;;;;21.30;14.50;;;4.70;99.90;;;5.44;100.00;-19911.97;5091239;28;20290;-72
2021/12/17 09:17:39;;;;;;;22.80;15.73;;;4.70;99.90;;;5.39;100.00;-19910.25;5091278;28;20602;-67
2021/12/17 09:20:09;;;;;;;21.37;14.63;;;4.70;99.90;;;5.36;100.00;-19909.22;5089784;28;20651;-66
2021/12/17 09:22:37;;;;;;;22.33;15.27;;;4.70;99.90;;;5.35;100.00;-19909.06;5090220;28;20303;-67
2021/12/17 09:25:07;;;;;;;25.50;16.30;;;4.70;99.90;;;5.48;100.00;-19913.34;5089806;28;20664;-65
2021/12/17 09:27:35;;;;;;;22.97;15.67;;;4.80;99.90;;;5.57;100.00;-19916.41;5089989;28;20590;-65
2021/12/17 09:30:07;;;;;;;23.00;15.30;;;4.80;99.90;;;5.75;100.00;-19922.56;5089574;28;20540;-67
2021/12/17 09:32:38;;;;;;;20.10;14.27;;;4.80;99.90;;;5.87;100.00;-19926.66;5089563;28;20224;-65
2021/12/17 09:35:08;;;;;;;23.70;15.17;;;4.90;99.90;;;5.83;100.00;-19925.47;5089996;28;20191;-61
2021/12/17 09:37:37;;;;;;;22.47;14.13;;;5.00;99.90;;;5.92;100.00;-19928.53;5089857;28;20533;-60
2021/12/17 09:40:10;;;;;;;20.83;14.07;;;4.90;99.90;;;5.87;100.00;-19926.66;5089947;28;20206;-72
2021/12/17 09:42:39;;;;;;;21.50;14.87;;;4.90;99.90;;;5.94;100.00;-19929.22;5090084;28;20189;-66
2021/12/17 09:45:08;;;;;;;23.57;15.00;;;5.00;99.90;;;5.97;100.00;-19930.09;5089707;28;20267;-64
2021/12/17 09:47:38;;;;;;;20.93;13.80;;;5.00;99.90;;;6.09;100.00;-19934.19;5089713;28;20202;-65
2021/12/17 09:50:09;;;;;;;19.70;12.87;;;5.10;99.90;;;6.20;100.00;-19937.94;5089725;28;20200;-63
2021/12/17 09:52:38;;;;;;;17.53;13.03;;;5.20;99.90;;;6.37;100.00;-19943.59;5069884;28;20280;-70
2021/12/17 09:55:08;;;;;;;21.13;13.20;;;5.40;99.90;;;6.43;100.00;-19945.63;5069767;28;20229;-70
2021/12/17 09:57:36;;;;;;;21.33;13.33;;;5.50;99.90;;;6.35;100.00;-19943.06;5077353;28;20202;-68
2021/12/17 10:00:10;;;;;;;18.07;12.30;;;5.50;99.90;;;6.36;100.00;-19943.25;5089172;28;20558;-60
2021/12/17 10:02:43;;;;;;;18.13;12.57;;;5.60;99.90;;;6.44;100.00;-19946.16;5079447;28;20192;-61
2021/12/17 10:05:15;;;;;;;20.37;12.53;;;5.60;99.90;;;6.77;100.00;-19957.25;5072705;28;20183;-67
2021/12/17 10:07:45;;;;;;;20.73;13.40;;;5.70;99.90;;;6.77;100.00;-19957.25;5089984;28;20181;-73
2021/12/17 10:10:16;;;;;;;18.27;12.50;;;5.70;99.90;;;6.75;100.00;-19956.75;5089532;28;20196;-67
2021/12/17 10:12:45;;;;;;;18.13;12.77;;;5.80;99.90;;;7.06;100.00;-19967.34;5089377;28;20204;-67
2021/12/17 10:15:17;;;;;;;15.60;12.10;;;5.90;99.90;;;7.06;100.00;-19967.34;5093223;28;20727;-69
2021/12/17 10:17:57;;;;;;;19.13;12.97;;;5.90;99.90;;;7.02;100.00;-19965.97;5093056;28;20267;-67
2021/12/17 10:20:26;;;;;;;19.20;13.30;;;6.00;99.90;;;7.21;100.00;-19972.28;5093252;28;20184;-68
2021/12/17 10:23:00;;;;;;;18.27;12.67;;;6.10;99.90;;;7.33;100.00;-19976.56;5093301;28;20283;-68
2021/12/17 10:25:30;;;;;;;18.80;12.87;;;6.20;99.90;;;7.48;100.00;-19981.53;5092921;28;20194;-68
2021/12/17 10:28:03;;;;;;;18.23;12.30;;;6.20;99.90;;;7.47;100.00;-19981.34;5093606;28;20191;-60
2021/12/17 10:30:34;;;;;;;19.27;12.33;;;6.30;99.90;;;7.70;100.00;-19988.88;5092905;28;20242;-61
2021/12/17 10:33:06;;;;;;;18.23;12.43;;;6.40;99.90;;;7.73;100.00;-19989.91;5092593;28;20228;-61
2021/12/17 10:35:37;;;;;;;17.43;12.30;;;6.50;99.90;;;7.67;100.00;-19988.00;5092822;28;20308;-60
2021/12/17 10:38:11;;;;;;;17.30;11.57;;;6.60;99.90;;;7.61;100.00;-19985.78;5093007;28;20202;-62
2021/12/17 10:40:45;;;;;;;18.53;12.30;;;6.60;99.90;;;7.61;100.00;-19985.78;5093282;28;20184;-70
2021/12/17 10:43:21;;;;;;;19.77;12.37;;;6.60;99.90;;;7.54;100.00;-19983.41;5085753;28;20205;-69
2021/12/17 10:46:00;;;;;;;19.17;12.40;;;6.50;99.90;;;7.85;100.00;-19994.16;5090006;28;20199;-68
2021/12/17 10:48:36;;;;;;;18.03;12.13;;;6.50;99.90;;;7.58;100.00;-19984.94;5089421;28;20265;-69
2021/12/17 10:51:29;;;;;;;18.80;12.47;;;6.50;99.90;;;7.47;100.00;-19981.00;5092856;28;20275;-71
2021/12/17 10:54:00;;;;;;;19.97;13.07;;;6.40;99.90;;;7.83;100.00;-19993.47;5092334;28;20276;-68
2021/12/17 10:56:33;;;;;;;18.40;12.97;;;6.40;99.90;;;7.56;100.00;-19984.09;5092520;28;20185;-69
2021/12/17 10:59:06;;;;;;;18.27;12.17;;;6.40;99.90;;;7.55;100.00;-19983.91;5091984;28;20550;-70
2021/12/17 11:01:40;;;;;;;20.07;12.67;;;6.40;99.90;;;7.64;100.00;-19986.81;5092644;28;20961;-70
2021/12/17 11:04:21;;;;;;;16.37;11.57;;;6.40;99.90;;;7.58;100.00;-19984.78;5092741;28;20237;-71
2021/12/17 11:06:57;;;;;;;21.00;12.90;;;6.50;99.90;;;7.61;100.00;-19985.97;5075354;28;20189;-70
2021/12/17 11:09:54;;;;;;;19.90;12.00;;;6.40;99.90;;;7.63;100.00;-19986.66;5072071;28;20189;-54
2021/12/17 11:12:32;;;;;;;18.70;11.93;;;6.50;99.90;;;7.72;100.00;-19989.56;5071699;28;20805;-55
2021/12/17 11:15:18;;;;;;;16.57;11.97;;;6.60;99.90;;;7.84;100.00;-19993.81;5081910;28;20750;-54
2021/12/17 11:17:51;;;;;;;17.93;12.20;;;6.70;99.90;;;7.84;100.00;-19993.66;5092038;28;20184;-64
2021/12/17 11:20:25;;;;;;;17.77;12.50;;;6.70;99.90;;;7.73;100.00;-19989.91;5092345;28;20188;-73
2021/12/17 11:22:56;;;;;;;18.87;12.77;;;6.70;99.90;;;7.79;100.00;-19992.13;5092691;28;20192;-74
2021/12/17 11:25:25;;;;;;;17.87;12.53;;;6.70;99.90;;;7.86;100.00;-19994.34;5091887;28;20242;-72
2021/12/17 11:27:54;;;;;;;18.73;13.27;;;6.80;99.90;;;7.77;100.00;-19991.25;5092857;28;20208;-71
2021/12/17 11:30:26;;;;;;;18.80;13.10;;;6.70;99.90;;;7.83;100.00;-19993.31;5092875;28;20714;-73
2021/12/17 11:32:56;;;;;;;19.43;13.30;;;6.80;99.90;;;7.88;100.00;-19995.03;5079350;28;20236;-73
2021/12/17 11:35:29;;;;;;;20.03;13.33;;;6.80;99.90;;;7.97;100.00;-19998.25;5072922;28;20193;-71
2021/12/17 11:38:03;;;;;;;18.63;13.43;;;6.80;99.90;;;7.96;100.00;-19997.75;5071774;28;20246;-73
2021/12/17 11:40:37;;;;;;;19.80;14.33;;;6.90;99.90;;;8.02;100.00;-19999.81;5072154;28;20192;-74
2021/12/17 11:43:28;;;;;;;19.53;12.90;;;6.90;99.90;;;8.00;100.00;-19999.13;5071236;28;20656;-72
2021/12/17 11:46:00;;;;;;;19.53;13.07;;;7.00;99.90;;;8.05;100.00;-20001.00;5089461;28;20222;-73
2021/12/17 11:48:33;;;;;;;20.87;13.67;;;7.00;99.90;;;8.18;100.00;-20005.28;5091915;28;20851;-72
2021/12/17 11:51:12;;;;;;;19.83;13.40;;;7.10;99.90;;;8.27;100.00;-20008.34;5091781;28;20185;-73
2021/12/17 11:54:08;;;;;;;19.43;13.07;;;7.10;99.90;;;8.15;100.00;-20004.41;5092287;28;20235;-75
2021/12/17 11:56:47;;;;;;;21.17;12.83;;;7.10;99.90;;;8.17;100.00;-20004.94;5092907;28;20238;-72
2021/12/17 11:59:39;;;;;;;20.57;13.07;;;7.10;99.90;;;8.16;100.00;-20004.75;5084314;28;20207;-61
2021/12/17 12:02:15;;;;;;;17.17;12.10;;;7.10;99.90;;;8.18;100.00;-20005.44;5091158;28;20180;-61
2021/12/17 12:04:53;;;;;;;16.63;11.70;;;7.10;99.90;;;8.52;100.00;-20017.06;5091061;28;20280;-61
2021/12/17 12:07:38;;;;;;;16.30;11.30;;;7.20;99.90;;;8.35;100.00;-20011.25;5071125;28;20192;-61
2021/12/17 12:10:22;;;;;;;15.20;11.43;;;7.20;99.90;;;8.35;100.00;-20011.09;5070950;28;20271;-60
2021/12/17 12:13:01;;;;;;;17.33;11.80;;;7.30;99.90;;;8.27;100.00;-20008.34;5068502;28;20228;-60
2021/12/17 12:15:40;;;;;;;17.90;10.70;;;7.20;99.90;;;8.26;100.00;-20008.19;5085103;28;20199;-60
2021/12/17 12:18:19;;;;;;;16.67;10.70;;;7.20;99.90;;;8.37;100.00;-20011.94;5091157;28;20184;-61
2021/12/17 12:20:59;;;;;;;17.40;10.97;;;7.20;99.90;;;8.22;100.00;-20006.63;5090366;28;20188;-62
2021/12/17 12:23:57;;;;;;;17.17;11.67;;;7.30;99.90;;;8.19;100.00;-20005.59;5090954;28;20245;-70
2021/12/17 12:26:41;;;;;;;16.37;11.13;;;7.30;99.90;;;8.24;100.00;-20007.31;5091327;28;20188;-70
2021/12/17 12:29:17;;;;;;;15.47;10.17;;;7.30;99.90;;;8.35;100.00;-20011.09;5090287;28;20244;-72
2021/12/17 12:32:13;;;;;;;16.97;11.03;;;7.20;99.90;;;8.42;100.00;-20013.47;5091147;28;20275;-70
2021/12/17 12:34:43;;;;;;;15.70;10.33;;;7.20;99.90;;;8.63;100.00;-20020.66;5091064;28;20223;-68
2021/12/17 12:37:28;;;;;;;15.23;10.53;;;7.40;99.90;;;8.64;100.00;-20021.16;5090756;28;20283;-61
2021/12/17 12:40:21;;;;;;;15.73;10.37;;;7.40;99.90;;;8.41;100.00;-20013.31;5082434;28;20220;-66
2021/12/17 12:42:54;;;;;;;14.27;9.93;;;7.40;99.90;;;8.50;100.00;-20016.22;5070321;28;20191;-65
2021/12/17 12:45:24;;;;;;;18.63;10.70;;;7.40;99.90;;;8.35;100.00;-20011.09;5083163;28;20199;-68